sensor_id;sensor_type;location;lat;lon;timestamp;P1;durP1;ratioP1;P2;durP2;ratioP2
73919;SDS011;62266;53.348;-1.496;2023-08-30T00:00:01;7.07;;;2.25;;
73919;SDS011;62266;53.348;-1.496;2023-08-30T00:02:45;5.88;;;2.03;;
73919;SDS011;62266;53.348;-1.496;2023-08-30T00:05:29;4.60;;;1.92;;
73919;SDS011;62266;53.348;-1.496;2023-08-30T00:08:13;4.88;;;1.90;;
73919;SDS011;62266;53.348;-1.496;2023-08-30T00:11:02;6.10;;;1.70;;
73919;SDS011;62266;53.348;-1.496;2023-08-30T00:13:48;6.45;;;1.77;;
73919;SDS011;62266;53.348;-1.496;2023-08-30T00:16:32;6.50;;;1.92;;
73919;SDS011;62266;53.348;-1.496;2023-08-30T00:19:17;3.90;;;1.63;;
73919;SDS011;62266;53.348;-1.496;2023-08-30T00:22:01;4.60;;;2.13;;
73919;SDS011;62266;53.348;-1.496;2023-08-30T00:24:46;6.47;;;1.53;;
73919;SDS011;62266;53.348;-1.496;2023-08-30T00:27:31;6.30;;;1.50;;
73919;SDS011;62266;53.348;-1.496;2023-08-30T00:30:15;6.72;;;1.77;;
73919;SDS011;62266;53.348;-1.496;2023-08-30T00:32:59;4.82;;;1.77;;
73919;SDS011;62266;53.348;-1.496;2023-08-30T00:35:43;4.25;;;1.60;;
73919;SDS011;62266;53.348;-1.496;2023-08-30T00:38:27;5.43;;;1.93;;
73919;SDS011;62266;53.348;-1.496;2023-08-30T00:41:12;2.92;;;1.42;;
73919;SDS011;62266;53.348;-1.496;2023-08-30T00:43:56;4.75;;;1.73;;
73919;SDS011;62266;53.348;-1.496;2023-08-30T00:46:40;5.57;;;1.70;;
73919;SDS011;62266;53.348;-1.496;2023-08-30T00:49:24;4.47;;;1.67;;
73919;SDS011;62266;53.348;-1.496;2023-08-30T00:52:09;5.33;;;1.57;;
73919;SDS011;62266;53.348;-1.496;2023-08-30T00:54:53;4.30;;;1.35;;
73919;SDS011;62266;53.348;-1.496;2023-08-30T00:57:37;4.35;;;1.40;;
73919;SDS011;62266;53.348;-1.496;2023-08-30T01:00:21;2.28;;;1.17;;
73919;SDS011;62266;53.348;-1.496;2023-08-30T01:03:06;8.13;;;1.40;;
73919;SDS011;62266;53.348;-1.496;2023-08-30T01:05:53;5.70;;;1.30;;
73919;SDS011;62266;53.348;-1.496;2023-08-30T01:08:41;3.63;;;1.10;;
73919;SDS011;62266;53.348;-1.496;2023-08-30T01:14:21;5.22;;;1.17;;
73919;SDS011;62266;53.348;-1.496;2023-08-30T01:17:06;3.53;;;1.15;;
73919;SDS011;62266;53.348;-1.496;2023-08-30T01:19:58;4.83;;;1.70;;
73919;SDS011;62266;53.348;-1.496;2023-08-30T01:28:57;4.38;;;1.48;;
73919;SDS011;62266;53.348;-1.496;2023-08-30T01:31:42;5.13;;;1.30;;
73919;SDS011;62266;53.348;-1.496;2023-08-30T01:34:27;6.63;;;1.50;;
73919;SDS011;62266;53.348;-1.496;2023-08-30T01:37:12;5.22;;;1.25;;
73919;SDS011;62266;53.348;-1.496;2023-08-30T01:39:58;5.05;;;1.10;;
73919;SDS011;62266;53.348;-1.496;2023-08-30T01:42:43;5.28;;;1.42;;
73919;SDS011;62266;53.348;-1.496;2023-08-30T01:45:29;8.10;;;1.20;;
73919;SDS011;62266;53.348;-1.496;2023-08-30T01:48:15;3.33;;;1.10;;
73919;SDS011;62266;53.348;-1.496;2023-08-30T01:51:00;7.90;;;1.85;;
73919;SDS011;62266;53.348;-1.496;2023-08-30T01:53:44;3.42;;;1.02;;
73919;SDS011;62266;53.348;-1.496;2023-08-30T01:56:28;5.35;;;1.20;;
73919;SDS011;62266;53.348;-1.496;2023-08-30T01:59:12;4.78;;;1.40;;
73919;SDS011;62266;53.348;-1.496;2023-08-30T02:01:57;4.77;;;1.23;;
73919;SDS011;62266;53.348;-1.496;2023-08-30T02:04:41;7.03;;;1.30;;
73919;SDS011;62266;53.348;-1.496;2023-08-30T02:07:34;7.18;;;1.60;;
73919;SDS011;62266;53.348;-1.496;2023-08-30T02:10:23;3.75;;;1.25;;
73919;SDS011;62266;53.348;-1.496;2023-08-30T02:13:12;3.60;;;1.73;;
73919;SDS011;62266;53.348;-1.496;2023-08-30T02:15:57;5.03;;;1.30;;
73919;SDS011;62266;53.348;-1.496;2023-08-30T02:18:43;6.03;;;1.30;;
73919;SDS011;62266;53.348;-1.496;2023-08-30T02:21:27;4.93;;;1.30;;
73919;SDS011;62266;53.348;-1.496;2023-08-30T02:24:11;6.63;;;1.27;;
73919;SDS011;62266;53.348;-1.496;2023-08-30T02:26:55;4.40;;;1.50;;
73919;SDS011;62266;53.348;-1.496;2023-08-30T02:29:40;2.37;;;1.20;;
73919;SDS011;62266;53.348;-1.496;2023-08-30T02:32:24;5.32;;;1.50;;
73919;SDS011;62266;53.348;-1.496;2023-08-30T02:35:08;3.72;;;1.25;;
73919;SDS011;62266;53.348;-1.496;2023-08-30T02:37:52;4.07;;;1.20;;
73919;SDS011;62266;53.348;-1.496;2023-08-30T02:40:36;4.47;;;1.40;;
73919;SDS011;62266;53.348;-1.496;2023-08-30T02:43:21;5.20;;;1.63;;
73919;SDS011;62266;53.348;-1.496;2023-08-30T02:46:06;3.38;;;1.50;;
73919;SDS011;62266;53.348;-1.496;2023-08-30T02:48:50;5.03;;;1.50;;
73919;SDS011;62266;53.348;-1.496;2023-08-30T02:51:34;5.68;;;1.33;;
73919;SDS011;62266;53.348;-1.496;2023-08-30T02:54:18;4.47;;;1.52;;
73919;SDS011;62266;53.348;-1.496;2023-08-30T02:57:02;4.53;;;1.47;;
73919;SDS011;62266;53.348;-1.496;2023-08-30T02:59:46;6.78;;;1.83;;
73919;SDS011;62266;53.348;-1.496;2023-08-30T03:02:31;4.93;;;1.50;;
73919;SDS011;62266;53.348;-1.496;2023-08-30T03:05:17;3.47;;;1.40;;
73919;SDS011;62266;53.348;-1.496;2023-08-30T03:08:01;5.28;;;1.70;;
73919;SDS011;62266;53.348;-1.496;2023-08-30T03:10:45;4.33;;;1.20;;
73919;SDS011;62266;53.348;-1.496;2023-08-30T03:13:30;6.38;;;1.67;;
73919;SDS011;62266;53.348;-1.496;2023-08-30T03:16:14;5.57;;;1.48;;
73919;SDS011;62266;53.348;-1.496;2023-08-30T03:18:59;3.92;;;1.58;;
73919;SDS011;62266;53.348;-1.496;2023-08-30T03:21:44;4.07;;;1.60;;
73919;SDS011;62266;53.348;-1.496;2023-08-30T03:24:28;3.53;;;1.77;;
73919;SDS011;62266;53.348;-1.496;2023-08-30T03:27:12;3.22;;;1.10;;
73919;SDS011;62266;53.348;-1.496;2023-08-30T03:29:56;4.68;;;1.20;;
73919;SDS011;62266;53.348;-1.496;2023-08-30T03:32:40;4.38;;;1.30;;
73919;SDS011;62266;53.348;-1.496;2023-08-30T03:35:24;4.85;;;1.48;;
73919;SDS011;62266;53.348;-1.496;2023-08-30T03:38:08;5.30;;;1.57;;
73919;SDS011;62266;53.348;-1.496;2023-08-30T03:40:53;4.40;;;1.52;;
73919;SDS011;62266;53.348;-1.496;2023-08-30T03:43:37;6.00;;;1.42;;
73919;SDS011;62266;53.348;-1.496;2023-08-30T03:46:21;2.28;;;1.10;;
73919;SDS011;62266;53.348;-1.496;2023-08-30T03:49:05;2.92;;;1.52;;
73919;SDS011;62266;53.348;-1.496;2023-08-30T03:51:49;6.20;;;1.70;;
73919;SDS011;62266;53.348;-1.496;2023-08-30T03:54:33;4.70;;;1.30;;
73919;SDS011;62266;53.348;-1.496;2023-08-30T03:57:17;2.65;;;1.15;;
73919;SDS011;62266;53.348;-1.496;2023-08-30T04:00:02;4.50;;;1.23;;
73919;SDS011;62266;53.348;-1.496;2023-08-30T04:02:48;2.58;;;1.10;;
73919;SDS011;62266;53.348;-1.496;2023-08-30T04:05:33;4.00;;;1.00;;
73919;SDS011;62266;53.348;-1.496;2023-08-30T04:08:17;4.30;;;1.33;;
73919;SDS011;62266;53.348;-1.496;2023-08-30T04:11:01;4.55;;;1.48;;
73919;SDS011;62266;53.348;-1.496;2023-08-30T04:13:49;3.25;;;1.20;;
73919;SDS011;62266;53.348;-1.496;2023-08-30T04:16:33;4.20;;;1.35;;
73919;SDS011;62266;53.348;-1.496;2023-08-30T04:19:17;3.60;;;1.30;;
73919;SDS011;62266;53.348;-1.496;2023-08-30T04:22:01;4.25;;;1.33;;
73919;SDS011;62266;53.348;-1.496;2023-08-30T04:24:46;2.15;;;1.15;;
73919;SDS011;62266;53.348;-1.496;2023-08-30T04:27:30;3.63;;;1.67;;
73919;SDS011;62266;53.348;-1.496;2023-08-30T04:30:15;4.20;;;1.60;;
73919;SDS011;62266;53.348;-1.496;2023-08-30T04:33:00;4.20;;;1.83;;
73919;SDS011;62266;53.348;-1.496;2023-08-30T04:35:51;3.83;;;1.55;;
73919;SDS011;62266;53.348;-1.496;2023-08-30T04:38:35;5.07;;;1.73;;
73919;SDS011;62266;53.348;-1.496;2023-08-30T04:41:19;5.13;;;1.20;;
73919;SDS011;62266;53.348;-1.496;2023-08-30T04:44:03;2.97;;;1.35;;
73919;SDS011;62266;53.348;-1.496;2023-08-30T04:46:48;5.80;;;1.70;;
73919;SDS011;62266;53.348;-1.496;2023-08-30T04:49:32;4.55;;;1.20;;
73919;SDS011;62266;53.348;-1.496;2023-08-30T04:52:16;6.60;;;1.35;;
73919;SDS011;62266;53.348;-1.496;2023-08-30T04:55:01;3.78;;;1.58;;
73919;SDS011;62266;53.348;-1.496;2023-08-30T04:57:45;5.45;;;1.50;;
73919;SDS011;62266;53.348;-1.496;2023-08-30T05:00:31;2.10;;;1.07;;
73919;SDS011;62266;53.348;-1.496;2023-08-30T05:03:15;6.68;;;1.33;;
73919;SDS011;62266;53.348;-1.496;2023-08-30T05:05:59;7.10;;;1.85;;
73919;SDS011;62266;53.348;-1.496;2023-08-30T05:08:43;3.90;;;1.10;;
73919;SDS011;62266;53.348;-1.496;2023-08-30T05:11:28;4.55;;;1.63;;
73919;SDS011;62266;53.348;-1.496;2023-08-30T05:14:12;5.23;;;1.10;;
73919;SDS011;62266;53.348;-1.496;2023-08-30T05:16:56;3.65;;;1.42;;
73919;SDS011;62266;53.348;-1.496;2023-08-30T05:19:40;2.60;;;1.30;;
73919;SDS011;62266;53.348;-1.496;2023-08-30T05:22:24;4.80;;;1.70;;
73919;SDS011;62266;53.348;-1.496;2023-08-30T05:25:08;3.08;;;1.20;;
73919;SDS011;62266;53.348;-1.496;2023-08-30T05:27:53;2.67;;;0.80;;
73919;SDS011;62266;53.348;-1.496;2023-08-30T05:30:40;2.78;;;1.25;;
73919;SDS011;62266;53.348;-1.496;2023-08-30T05:33:25;3.88;;;1.10;;
73919;SDS011;62266;53.348;-1.496;2023-08-30T05:36:09;2.55;;;0.90;;
73919;SDS011;62266;53.348;-1.496;2023-08-30T05:38:53;4.78;;;0.90;;
73919;SDS011;62266;53.348;-1.496;2023-08-30T05:41:37;2.60;;;0.73;;
73919;SDS011;62266;53.348;-1.496;2023-08-30T05:44:21;3.88;;;1.00;;
73919;SDS011;62266;53.348;-1.496;2023-08-30T05:47:05;2.03;;;0.80;;
73919;SDS011;62266;53.348;-1.496;2023-08-30T05:49:49;2.95;;;1.25;;
73919;SDS011;62266;53.348;-1.496;2023-08-30T05:52:33;2.63;;;0.80;;
73919;SDS011;62266;53.348;-1.496;2023-08-30T05:55:17;3.03;;;0.70;;
73919;SDS011;62266;53.348;-1.496;2023-08-30T05:58:02;1.77;;;0.73;;
73919;SDS011;62266;53.348;-1.496;2023-08-30T06:00:46;1.48;;;0.57;;
73919;SDS011;62266;53.348;-1.496;2023-08-30T06:03:30;3.25;;;0.80;;
73919;SDS011;62266;53.348;-1.496;2023-08-30T06:06:15;3.03;;;0.80;;
73919;SDS011;62266;53.348;-1.496;2023-08-30T06:08:59;3.40;;;0.63;;
73919;SDS011;62266;53.348;-1.496;2023-08-30T06:11:48;1.45;;;0.63;;
73919;SDS011;62266;53.348;-1.496;2023-08-30T06:14:32;2.63;;;0.70;;
73919;SDS011;62266;53.348;-1.496;2023-08-30T06:17:16;2.05;;;0.70;;
73919;SDS011;62266;53.348;-1.496;2023-08-30T06:20:01;3.35;;;0.90;;
73919;SDS011;62266;53.348;-1.496;2023-08-30T06:22:46;1.90;;;0.80;;
73919;SDS011;62266;53.348;-1.496;2023-08-30T06:25:30;1.55;;;0.90;;
73919;SDS011;62266;53.348;-1.496;2023-08-30T06:28:14;2.50;;;0.80;;
73919;SDS011;62266;53.348;-1.496;2023-08-30T06:30:58;3.35;;;0.80;;
73919;SDS011;62266;53.348;-1.496;2023-08-30T06:33:42;2.35;;;0.73;;
73919;SDS011;62266;53.348;-1.496;2023-08-30T06:36:26;4.00;;;0.57;;
73919;SDS011;62266;53.348;-1.496;2023-08-30T06:39:10;2.70;;;0.70;;
73919;SDS011;62266;53.348;-1.496;2023-08-30T06:41:54;3.22;;;0.88;;
73919;SDS011;62266;53.348;-1.496;2023-08-30T06:44:38;2.90;;;0.82;;
73919;SDS011;62266;53.348;-1.496;2023-08-30T06:47:24;3.13;;;0.63;;
73919;SDS011;62266;53.348;-1.496;2023-08-30T06:50:08;2.53;;;0.60;;
73919;SDS011;62266;53.348;-1.496;2023-08-30T06:52:53;1.15;;;0.40;;
73919;SDS011;62266;53.348;-1.496;2023-08-30T06:55:37;1.42;;;0.50;;
73919;SDS011;62266;53.348;-1.496;2023-08-30T06:58:21;1.92;;;0.80;;
73919;SDS011;62266;53.348;-1.496;2023-08-30T07:01:05;3.60;;;0.75;;
73919;SDS011;62266;53.348;-1.496;2023-08-30T07:03:49;1.43;;;0.33;;
73919;SDS011;62266;53.348;-1.496;2023-08-30T07:06:33;2.35;;;0.50;;
73919;SDS011;62266;53.348;-1.496;2023-08-30T07:09:17;2.38;;;0.40;;
73919;SDS011;62266;53.348;-1.496;2023-08-30T07:12:03;1.15;;;0.40;;
73919;SDS011;62266;53.348;-1.496;2023-08-30T07:14:47;1.10;;;0.50;;
73919;SDS011;62266;53.348;-1.496;2023-08-30T07:17:32;2.47;;;0.47;;
73919;SDS011;62266;53.348;-1.496;2023-08-30T07:20:16;2.25;;;0.68;;
73919;SDS011;62266;53.348;-1.496;2023-08-30T07:23:01;0.50;;;0.20;;
73919;SDS011;62266;53.348;-1.496;2023-08-30T07:25:45;1.38;;;0.20;;
73919;SDS011;62266;53.348;-1.496;2023-08-30T07:28:29;1.30;;;0.38;;
73919;SDS011;62266;53.348;-1.496;2023-08-30T07:31:13;1.47;;;0.30;;
73919;SDS011;62266;53.348;-1.496;2023-08-30T07:33:59;0.50;;;0.32;;
73919;SDS011;62266;53.348;-1.496;2023-08-30T07:36:43;0.93;;;0.50;;
73919;SDS011;62266;53.348;-1.496;2023-08-30T07:39:27;1.73;;;0.30;;
73919;SDS011;62266;53.348;-1.496;2023-08-30T07:42:12;2.38;;;0.40;;
73919;SDS011;62266;53.348;-1.496;2023-08-30T07:44:50;0.93;;;0.20;;
73919;SDS011;62266;53.348;-1.496;2023-08-30T07:47:35;0.55;;;0.30;;
73919;SDS011;62266;53.348;-1.496;2023-08-30T07:53:11;1.92;;;0.20;;
73919;SDS011;62266;53.348;-1.496;2023-08-30T07:55:58;0.80;;;0.40;;
73919;SDS011;62266;53.348;-1.496;2023-08-30T07:58:42;1.60;;;0.50;;
73919;SDS011;62266;53.348;-1.496;2023-08-30T08:01:29;1.38;;;0.50;;
73919;SDS011;62266;53.348;-1.496;2023-08-30T08:04:14;3.05;;;0.40;;
73919;SDS011;62266;53.348;-1.496;2023-08-30T08:06:59;0.77;;;0.45;;
73919;SDS011;62266;53.348;-1.496;2023-08-30T08:09:43;1.85;;;0.38;;
73919;SDS011;62266;53.348;-1.496;2023-08-30T08:12:28;1.10;;;0.40;;
73919;SDS011;62266;53.348;-1.496;2023-08-30T08:15:15;1.50;;;0.30;;
73919;SDS011;62266;53.348;-1.496;2023-08-30T08:18:03;6.03;;;0.47;;
73919;SDS011;62266;53.348;-1.496;2023-08-30T08:20:48;0.70;;;0.20;;
73919;SDS011;62266;53.348;-1.496;2023-08-30T08:23:32;1.00;;;0.30;;
73919;SDS011;62266;53.348;-1.496;2023-08-30T08:26:17;1.07;;;0.30;;
73919;SDS011;62266;53.348;-1.496;2023-08-30T08:29:02;1.50;;;0.35;;
73919;SDS011;62266;53.348;-1.496;2023-08-30T08:31:47;3.78;;;0.38;;
73919;SDS011;62266;53.348;-1.496;2023-08-30T08:34:32;2.03;;;0.43;;
73919;SDS011;62266;53.348;-1.496;2023-08-30T08:37:20;1.63;;;0.40;;
73919;SDS011;62266;53.348;-1.496;2023-08-30T08:40:09;0.53;;;0.23;;
73919;SDS011;62266;53.348;-1.496;2023-08-30T08:42:54;1.02;;;0.20;;
73919;SDS011;62266;53.348;-1.496;2023-08-30T08:45:39;4.15;;;0.30;;
73919;SDS011;62266;53.348;-1.496;2023-08-30T08:48:23;0.50;;;0.10;;
73919;SDS011;62266;53.348;-1.496;2023-08-30T08:51:09;0.75;;;0.20;;
73919;SDS011;62266;53.348;-1.496;2023-08-30T08:53:58;0.30;;;0.10;;
73919;SDS011;62266;53.348;-1.496;2023-08-30T08:56:47;0.50;;;0.10;;
73919;SDS011;62266;53.348;-1.496;2023-08-30T08:59:31;0.57;;;0.30;;
73919;SDS011;62266;53.348;-1.496;2023-08-30T09:02:15;1.55;;;0.32;;
73919;SDS011;62266;53.348;-1.496;2023-08-30T09:04:59;0.85;;;0.40;;
73919;SDS011;62266;53.348;-1.496;2023-08-30T09:07:45;1.13;;;0.17;;
73919;SDS011;62266;53.348;-1.496;2023-08-30T09:10:55;0.90;;;0.25;;
73919;SDS011;62266;53.348;-1.496;2023-08-30T09:14:37;0.95;;;0.30;;
73919;SDS011;62266;53.348;-1.496;2023-08-30T09:17:21;1.10;;;0.40;;
73919;SDS011;62266;53.348;-1.496;2023-08-30T09:20:06;1.38;;;0.47;;
73919;SDS011;62266;53.348;-1.496;2023-08-30T09:22:52;1.03;;;0.40;;
73919;SDS011;62266;53.348;-1.496;2023-08-30T09:25:36;0.60;;;0.40;;
73919;SDS011;62266;53.348;-1.496;2023-08-30T09:28:21;2.35;;;0.52;;
73919;SDS011;62266;53.348;-1.496;2023-08-30T09:31:04;1.15;;;0.63;;
73919;SDS011;62266;53.348;-1.496;2023-08-30T09:33:50;0.80;;;0.45;;
73919;SDS011;62266;53.348;-1.496;2023-08-30T09:36:38;2.50;;;0.60;;
73919;SDS011;62266;53.348;-1.496;2023-08-30T09:39:23;1.10;;;0.70;;
73919;SDS011;62266;53.348;-1.496;2023-08-30T09:42:08;1.45;;;0.60;;
73919;SDS011;62266;53.348;-1.496;2023-08-30T09:44:52;1.30;;;0.60;;
73919;SDS011;62266;53.348;-1.496;2023-08-30T09:47:37;2.28;;;0.50;;
73919;SDS011;62266;53.348;-1.496;2023-08-30T09:50:21;1.83;;;0.77;;
73919;SDS011;62266;53.348;-1.496;2023-08-30T09:53:09;2.55;;;0.60;;
73919;SDS011;62266;53.348;-1.496;2023-08-30T09:55:53;1.52;;;0.52;;
73919;SDS011;62266;53.348;-1.496;2023-08-30T09:58:38;2.05;;;0.63;;
73919;SDS011;62266;53.348;-1.496;2023-08-30T10:01:23;2.97;;;0.70;;
73919;SDS011;62266;53.348;-1.496;2023-08-30T10:04:08;1.27;;;0.70;;
73919;SDS011;62266;53.348;-1.496;2023-08-30T10:06:53;1.38;;;0.77;;
73919;SDS011;62266;53.348;-1.496;2023-08-30T10:09:42;3.15;;;0.57;;
73919;SDS011;62266;53.348;-1.496;2023-08-30T10:12:26;3.83;;;0.75;;
73919;SDS011;62266;53.348;-1.496;2023-08-30T10:15:11;4.68;;;0.70;;
73919;SDS011;62266;53.348;-1.496;2023-08-30T10:17:55;2.27;;;0.80;;
73919;SDS011;62266;53.348;-1.496;2023-08-30T10:20:41;4.15;;;0.80;;
73919;SDS011;62266;53.348;-1.496;2023-08-30T10:23:26;1.38;;;0.32;;
73919;SDS011;62266;53.348;-1.496;2023-08-30T10:26:10;1.63;;;0.70;;
73919;SDS011;62266;53.348;-1.496;2023-08-30T10:28:55;1.85;;;0.70;;
73919;SDS011;62266;53.348;-1.496;2023-08-30T10:31:41;1.27;;;0.60;;
73919;SDS011;62266;53.348;-1.496;2023-08-30T10:34:32;2.10;;;0.63;;
73919;SDS011;62266;53.348;-1.496;2023-08-30T10:37:25;2.22;;;0.80;;
73919;SDS011;62266;53.348;-1.496;2023-08-30T10:40:10;4.25;;;0.65;;
73919;SDS011;62266;53.348;-1.496;2023-08-30T10:43:04;2.47;;;0.90;;
73919;SDS011;62266;53.348;-1.496;2023-08-30T10:45:57;2.30;;;0.53;;
73919;SDS011;62266;53.348;-1.496;2023-08-30T10:48:45;1.42;;;0.40;;
73919;SDS011;62266;53.348;-1.496;2023-08-30T10:51:36;2.33;;;0.65;;
73919;SDS011;62266;53.348;-1.496;2023-08-30T10:54:21;2.42;;;0.40;;
73919;SDS011;62266;53.348;-1.496;2023-08-30T11:02:44;1.85;;;0.30;;
73919;SDS011;62266;53.348;-1.496;2023-08-30T11:05:32;2.28;;;0.38;;
73919;SDS011;62266;53.348;-1.496;2023-08-30T11:08:17;2.45;;;0.77;;
73919;SDS011;62266;53.348;-1.496;2023-08-30T11:13:49;1.63;;;0.43;;
73919;SDS011;62266;53.348;-1.496;2023-08-30T11:16:57;2.25;;;0.50;;
73919;SDS011;62266;53.348;-1.496;2023-08-30T11:19:51;3.00;;;0.32;;
73919;SDS011;62266;53.348;-1.496;2023-08-30T11:22:53;4.82;;;0.40;;
73919;SDS011;62266;53.348;-1.496;2023-08-30T11:25:41;2.83;;;0.70;;
73919;SDS011;62266;53.348;-1.496;2023-08-30T11:28:37;1.80;;;0.40;;
73919;SDS011;62266;53.348;-1.496;2023-08-30T11:34:15;1.70;;;0.30;;
73919;SDS011;62266;53.348;-1.496;2023-08-30T11:37:10;2.10;;;0.52;;
73919;SDS011;62266;53.348;-1.496;2023-08-30T11:40:29;1.77;;;0.70;;
73919;SDS011;62266;53.348;-1.496;2023-08-30T11:43:31;1.60;;;0.50;;
73919;SDS011;62266;53.348;-1.496;2023-08-30T11:46:10;0.95;;;0.57;;
73919;SDS011;62266;53.348;-1.496;2023-08-30T11:49:03;1.92;;;0.70;;
73919;SDS011;62266;53.348;-1.496;2023-08-30T11:57:50;2.07;;;0.40;;
73919;SDS011;62266;53.348;-1.496;2023-08-30T12:00:43;1.63;;;0.60;;
73919;SDS011;62266;53.348;-1.496;2023-08-30T12:03:57;1.35;;;0.40;;
73919;SDS011;62266;53.348;-1.496;2023-08-30T12:06:54;2.47;;;0.60;;
73919;SDS011;62266;53.348;-1.496;2023-08-30T12:09:44;1.77;;;0.65;;
73919;SDS011;62266;53.348;-1.496;2023-08-30T12:12:28;1.97;;;0.47;;
73919;SDS011;62266;53.348;-1.496;2023-08-30T12:15:13;2.22;;;0.70;;
73919;SDS011;62266;53.348;-1.496;2023-08-30T12:18:07;1.30;;;0.57;;
73919;SDS011;62266;53.348;-1.496;2023-08-30T12:20:54;1.70;;;0.40;;
73919;SDS011;62266;53.348;-1.496;2023-08-30T12:23:42;2.00;;;0.60;;
73919;SDS011;62266;53.348;-1.496;2023-08-30T12:26:31;0.90;;;0.30;;
73919;SDS011;62266;53.348;-1.496;2023-08-30T12:29:16;1.80;;;0.50;;
73919;SDS011;62266;53.348;-1.496;2023-08-30T12:32:00;1.85;;;0.50;;
73919;SDS011;62266;53.348;-1.496;2023-08-30T12:34:44;0.82;;;0.38;;
73919;SDS011;62266;53.348;-1.496;2023-08-30T12:37:28;1.48;;;0.43;;
73919;SDS011;62266;53.348;-1.496;2023-08-30T12:40:13;3.77;;;0.70;;
73919;SDS011;62266;53.348;-1.496;2023-08-30T12:42:57;2.22;;;0.55;;
73919;SDS011;62266;53.348;-1.496;2023-08-30T12:45:42;2.10;;;0.70;;
73919;SDS011;62266;53.348;-1.496;2023-08-30T12:48:27;1.45;;;0.40;;
73919;SDS011;62266;53.348;-1.496;2023-08-30T12:51:11;1.30;;;0.52;;
73919;SDS011;62266;53.348;-1.496;2023-08-30T12:53:57;1.33;;;0.47;;
73919;SDS011;62266;53.348;-1.496;2023-08-30T12:56:41;1.20;;;0.40;;
73919;SDS011;62266;53.348;-1.496;2023-08-30T12:59:25;2.53;;;0.40;;
73919;SDS011;62266;53.348;-1.496;2023-08-30T13:02:09;1.48;;;0.40;;
73919;SDS011;62266;53.348;-1.496;2023-08-30T13:04:54;1.38;;;0.32;;
73919;SDS011;62266;53.348;-1.496;2023-08-30T13:07:38;1.33;;;0.40;;
73919;SDS011;62266;53.348;-1.496;2023-08-30T13:10:23;2.08;;;0.40;;
73919;SDS011;62266;53.348;-1.496;2023-08-30T13:13:07;3.72;;;0.52;;
73919;SDS011;62266;53.348;-1.496;2023-08-30T13:15:51;3.03;;;0.40;;
73919;SDS011;62266;53.348;-1.496;2023-08-30T13:18:35;1.80;;;0.30;;
73919;SDS011;62266;53.348;-1.496;2023-08-30T13:21:20;1.53;;;0.23;;
73919;SDS011;62266;53.348;-1.496;2023-08-30T13:24:04;2.42;;;0.40;;
73919;SDS011;62266;53.348;-1.496;2023-08-30T13:26:49;2.63;;;0.50;;
73919;SDS011;62266;53.348;-1.496;2023-08-30T13:29:39;1.73;;;0.22;;
73919;SDS011;62266;53.348;-1.496;2023-08-30T13:32:30;1.85;;;0.30;;
73919;SDS011;62266;53.348;-1.496;2023-08-30T13:35:15;1.87;;;0.30;;
73919;SDS011;62266;53.348;-1.496;2023-08-30T13:37:59;1.40;;;0.30;;
73919;SDS011;62266;53.348;-1.496;2023-08-30T13:40:43;1.23;;;0.20;;
73919;SDS011;62266;53.348;-1.496;2023-08-30T13:43:29;1.25;;;0.40;;
73919;SDS011;62266;53.348;-1.496;2023-08-30T13:46:15;1.05;;;0.40;;
73919;SDS011;62266;53.348;-1.496;2023-08-30T13:48:59;0.63;;;0.20;;
73919;SDS011;62266;53.348;-1.496;2023-08-30T13:51:47;0.93;;;0.30;;
73919;SDS011;62266;53.348;-1.496;2023-08-30T13:54:32;1.65;;;0.35;;
73919;SDS011;62266;53.348;-1.496;2023-08-30T13:57:18;0.52;;;0.20;;
73919;SDS011;62266;53.348;-1.496;2023-08-30T14:00:14;2.28;;;0.50;;
73919;SDS011;62266;53.348;-1.496;2023-08-30T14:02:59;1.23;;;0.50;;
73919;SDS011;62266;53.348;-1.496;2023-08-30T14:05:47;1.70;;;0.32;;
73919;SDS011;62266;53.348;-1.496;2023-08-30T14:08:31;1.67;;;0.43;;
73919;SDS011;62266;53.348;-1.496;2023-08-30T14:11:16;0.82;;;0.20;;
73919;SDS011;62266;53.348;-1.496;2023-08-30T14:14:02;0.95;;;0.50;;
73919;SDS011;62266;53.348;-1.496;2023-08-30T14:16:47;1.83;;;0.60;;
73919;SDS011;62266;53.348;-1.496;2023-08-30T14:19:35;1.63;;;0.30;;
73919;SDS011;62266;53.348;-1.496;2023-08-30T14:22:21;1.33;;;0.35;;
73919;SDS011;62266;53.348;-1.496;2023-08-30T14:25:07;2.33;;;0.60;;
73919;SDS011;62266;53.348;-1.496;2023-08-30T14:27:51;2.30;;;0.57;;
73919;SDS011;62266;53.348;-1.496;2023-08-30T14:30:35;0.90;;;0.33;;
73919;SDS011;62266;53.348;-1.496;2023-08-30T14:33:20;3.97;;;0.50;;
73919;SDS011;62266;53.348;-1.496;2023-08-30T14:36:11;1.83;;;0.50;;
73919;SDS011;62266;53.348;-1.496;2023-08-30T14:38:58;1.10;;;0.57;;
73919;SDS011;62266;53.348;-1.496;2023-08-30T14:41:43;0.88;;;0.50;;
73919;SDS011;62266;53.348;-1.496;2023-08-30T14:44:29;2.37;;;0.43;;
73919;SDS011;62266;53.348;-1.496;2023-08-30T14:47:14;1.88;;;0.50;;
73919;SDS011;62266;53.348;-1.496;2023-08-30T14:49:59;1.27;;;0.35;;
73919;SDS011;62266;53.348;-1.496;2023-08-30T14:52:46;3.03;;;0.30;;
73919;SDS011;62266;53.348;-1.496;2023-08-30T14:55:30;2.05;;;0.30;;
73919;SDS011;62266;53.348;-1.496;2023-08-30T14:58:21;1.47;;;0.40;;
73919;SDS011;62266;53.348;-1.496;2023-08-30T15:01:09;1.55;;;0.40;;
73919;SDS011;62266;53.348;-1.496;2023-08-30T15:04:00;2.28;;;0.60;;
73919;SDS011;62266;53.348;-1.496;2023-08-30T15:06:45;3.13;;;0.50;;
73919;SDS011;62266;53.348;-1.496;2023-08-30T15:09:30;2.17;;;0.40;;
73919;SDS011;62266;53.348;-1.496;2023-08-30T15:12:16;1.80;;;0.40;;
73919;SDS011;62266;53.348;-1.496;2023-08-30T15:15:07;2.63;;;0.40;;
73919;SDS011;62266;53.348;-1.496;2023-08-30T15:17:59;0.93;;;0.30;;
73919;SDS011;62266;53.348;-1.496;2023-08-30T15:20:44;1.67;;;0.43;;
73919;SDS011;62266;53.348;-1.496;2023-08-30T15:23:35;1.85;;;0.60;;
73919;SDS011;62266;53.348;-1.496;2023-08-30T15:26:23;0.57;;;0.20;;
73919;SDS011;62266;53.348;-1.496;2023-08-30T15:29:09;0.98;;;0.38;;
73919;SDS011;62266;53.348;-1.496;2023-08-30T15:31:56;0.77;;;0.20;;
73919;SDS011;62266;53.348;-1.496;2023-08-30T15:34:42;1.90;;;0.30;;
73919;SDS011;62266;53.348;-1.496;2023-08-30T15:37:26;1.02;;;0.20;;
73919;SDS011;62266;53.348;-1.496;2023-08-30T15:40:11;6.47;;;0.60;;
73919;SDS011;62266;53.348;-1.496;2023-08-30T15:42:55;2.17;;;0.38;;
73919;SDS011;62266;53.348;-1.496;2023-08-30T15:45:39;1.60;;;0.30;;
73919;SDS011;62266;53.348;-1.496;2023-08-30T15:48:26;0.95;;;0.30;;
73919;SDS011;62266;53.348;-1.496;2023-08-30T15:51:10;1.50;;;0.30;;
73919;SDS011;62266;53.348;-1.496;2023-08-30T15:53:54;0.97;;;0.20;;
73919;SDS011;62266;53.348;-1.496;2023-08-30T15:56:38;0.60;;;0.38;;
73919;SDS011;62266;53.348;-1.496;2023-08-30T15:59:22;2.05;;;0.43;;
73919;SDS011;62266;53.348;-1.496;2023-08-30T16:02:07;1.23;;;0.30;;
73919;SDS011;62266;53.348;-1.496;2023-08-30T16:04:51;1.38;;;0.45;;
73919;SDS011;62266;53.348;-1.496;2023-08-30T16:07:35;1.10;;;0.37;;
73919;SDS011;62266;53.348;-1.496;2023-08-30T16:10:19;1.38;;;0.40;;
73919;SDS011;62266;53.348;-1.496;2023-08-30T16:13:04;3.33;;;0.60;;
73919;SDS011;62266;53.348;-1.496;2023-08-30T16:15:48;1.15;;;0.50;;
73919;SDS011;62266;53.348;-1.496;2023-08-30T16:18:32;1.10;;;0.50;;
73919;SDS011;62266;53.348;-1.496;2023-08-30T16:21:16;4.00;;;0.50;;
73919;SDS011;62266;53.348;-1.496;2023-08-30T16:24:00;8.00;;;3.95;;
73919;SDS011;62266;53.348;-1.496;2023-08-30T16:26:44;2.88;;;1.73;;
73919;SDS011;62266;53.348;-1.496;2023-08-30T16:29:29;1.67;;;0.50;;
73919;SDS011;62266;53.348;-1.496;2023-08-30T16:32:13;2.22;;;1.55;;
73919;SDS011;62266;53.348;-1.496;2023-08-30T16:34:57;1.97;;;0.30;;
73919;SDS011;62266;53.348;-1.496;2023-08-30T16:37:41;2.20;;;0.30;;
73919;SDS011;62266;53.348;-1.496;2023-08-30T16:40:25;1.15;;;0.40;;
73919;SDS011;62266;53.348;-1.496;2023-08-30T16:43:09;1.88;;;0.40;;
73919;SDS011;62266;53.348;-1.496;2023-08-30T16:45:54;2.00;;;0.50;;
73919;SDS011;62266;53.348;-1.496;2023-08-30T16:48:38;1.37;;;0.30;;
73919;SDS011;62266;53.348;-1.496;2023-08-30T16:51:22;1.20;;;0.50;;